M I D A S
Marine Information and Data Acquisition System
Tripno 1869 of the Zeeleeuw from 2010-04-27 06:24:28 to 2010-04-27 13:59:42
Back to CruiseResearch ActivitiesStationsMapUnderway DataData graphs

EquipmentUnitsComment
TimeDGPSUTC
LatitudeDGPSDM.mWGS84
LongitudeDGPSDM.mWGS84
HeadingGyrodeg 
SOGDGPSknotsSpeed over ground
COGDGPSdegCourse over ground
DepthEcho soundermeters200 kHz
Missing or incorrect values are displayed as -999
Navigation data collected by the RV Zeeleeuw from 2010-04-27 05:51:42 to 2010-04-27 14:10:25
                                                                                    Next 1000 lines
Time Latitude Longitude Heading SOG COG Depth
2010-04-27 05:51:52 51°13.663 2°55.961 125.5 0.1 147 -999
2010-04-27 05:51:57 51°13.663 2°55.961 125.5 0.1 129 -999
2010-04-27 05:52:03 51°13.663 2°55.961 125.7 0.1 149 -999
2010-04-27 05:52:08 51°13.662 2°55.961 125.8 0.1 116 -999
2010-04-27 05:52:12 51°13.662 2°55.96 126 0.1 324 -999
2010-04-27 05:52:17 51°13.662 2°55.96 126.1 0.1 358 -999
2010-04-27 05:52:23 51°13.662 2°55.96 126.3 0.1 324 -999
2010-04-27 05:52:28 51°13.662 2°55.96 126.4 0.1 357 -999
2010-04-27 05:52:33 51°13.662 2°55.96 126.4 -999 340 -999
2010-04-27 05:52:37 51°13.662 2°55.96 126.4 -999 154 -999
2010-04-27 05:52:42 51°13.662 2°55.96 126.5 0.1 175 -999
2010-04-27 05:52:47 51°13.662 2°55.96 126.5 -999 15 -999
2010-04-27 05:52:52 51°13.662 2°55.96 126.5 -999 175 -999
2010-04-27 05:52:57 51°13.662 2°55.96 126.5 -999 214 -999
2010-04-27 05:53:02 51°13.662 2°55.96 126.6 -999 349 -999
2010-04-27 05:53:07 51°13.662 2°55.96 126.6 0.1 -999 -999
2010-04-27 05:53:12 51°13.662 2°55.96 126.8 -999 18 -999
2010-04-27 05:53:17 51°13.662 2°55.961 126.9 -999 10 -999
2010-04-27 05:53:22 51°13.662 2°55.961 127 0.1 24 -999
2010-04-27 05:53:27 51°13.662 2°55.961 127 -999 166 -999
2010-04-27 05:53:32 51°13.662 2°55.961 127.1 0.1 6 -999
2010-04-27 05:53:38 51°13.662 2°55.961 127.1 -999 152 -999
2010-04-27 05:53:42 51°13.662 2°55.96 127.3 0.1 182 -999
2010-04-27 05:53:47 51°13.662 2°55.96 127.4 -999 27 -999
2010-04-27 05:53:52 51°13.662 2°55.96 127.4 -999 330 -999
2010-04-27 05:53:58 51°13.662 2°55.96 127.5 -999 343 -999
2010-04-27 05:54:02 51°13.662 2°55.96 127.4 0.1 354 -999
2010-04-27 05:54:07 51°13.662 2°55.96 127.3 -999 342 -999
2010-04-27 05:54:12 51°13.662 2°55.96 127.1 -999 351 -999
2010-04-27 05:54:17 51°13.662 2°55.96 127.1 -999 14 -999
2010-04-27 05:54:22 51°13.662 2°55.96 127.1 0.1 344 -999
2010-04-27 05:54:27 51°13.662 2°55.96 127 0.1 356 -999
2010-04-27 05:54:33 51°13.662 2°55.96 126.9 0.1 332 -999
2010-04-27 05:54:37 51°13.662 2°55.96 126.7 -999 8 -999
2010-04-27 05:54:43 51°13.662 2°55.96 126.6 -999 207 -999
2010-04-27 05:54:48 51°13.662 2°55.96 126.4 -999 183 -999
2010-04-27 05:54:53 51°13.662 2°55.96 126.4 -999 265 -999
2010-04-27 05:54:57 51°13.662 2°55.96 126.4 0.1 353 -999
2010-04-27 05:55:03 51°13.662 2°55.96 126.4 -999 338 -999
2010-04-27 05:55:08 51°13.662 2°55.96 126.4 -999 10 -999
2010-04-27 05:55:13 51°13.662 2°55.96 126.4 -999 217 -999
2010-04-27 05:55:17 51°13.662 2°55.96 126.4 -999 68 -999
2010-04-27 05:55:22 51°13.662 2°55.96 126.4 -999 247 -999
2010-04-27 05:55:27 51°13.662 2°55.96 126.3 -999 55 -999
2010-04-27 05:55:32 51°13.662 2°55.96 126.3 -999 173 -999
2010-04-27 05:55:37 51°13.662 2°55.96 126.2 -999 70 -999
2010-04-27 05:55:42 51°13.662 2°55.96 126.1 -999 188 -999
2010-04-27 05:55:47 51°13.662 2°55.96 126 -999 43 -999
2010-04-27 05:55:52 51°13.662 2°55.96 126 -999 329 -999
2010-04-27 05:55:58 51°13.662 2°55.96 126 -999 281 -999
2010-04-27 05:56:02 51°13.662 2°55.96 126 -999 -999 -999
2010-04-27 05:56:07 51°13.662 2°55.96 126.1 -999 180 -999
2010-04-27 05:56:12 51°13.662 2°55.96 126.2 -999 2 -999
2010-04-27 05:56:18 51°13.662 2°55.96 126.3 -999 182 -999
2010-04-27 05:56:22 51°13.663 2°55.96 126.4 -999 285 -999
2010-04-27 05:56:27 51°13.663 2°55.96 126.4 -999 11 -999
2010-04-27 05:56:32 51°13.663 2°55.96 126.6 -999 21 -999
2010-04-27 05:56:37 51°13.662 2°55.96 126.7 -999 356 -999
2010-04-27 05:56:42 51°13.663 2°55.96 126.7 0.1 356 -999
2010-04-27 05:56:47 51°13.663 2°55.96 126.8 -999 11 -999
2010-04-27 05:56:52 51°13.662 2°55.96 126.8 -999 170 -999
2010-04-27 05:56:57 51°13.663 2°55.96 126.9 -999 174 -999
2010-04-27 05:57:02 51°13.662 2°55.96 126.9 -999 190 -999
2010-04-27 05:57:07 51°13.662 2°55.959 126.9 -999 249 -999
2010-04-27 05:57:12 51°13.663 2°55.959 126.9 -999 10 -999
2010-04-27 05:57:17 51°13.663 2°55.959 127 -999 351 -999
2010-04-27 05:57:23 51°13.663 2°55.959 127 0.1 187 -999
2010-04-27 05:57:27 51°13.663 2°55.959 127 -999 136 -999
2010-04-27 05:57:33 51°13.663 2°55.959 127.1 -999 4 -999
2010-04-27 05:57:37 51°13.663 2°55.959 127.1 0.1 3 -999
2010-04-27 05:57:42 51°13.663 2°55.959 127.1 -999 344 -999
2010-04-27 05:57:48 51°13.663 2°55.959 127.1 -999 179 -999
2010-04-27 05:57:53 51°13.663 2°55.959 127.1 -999 286 -999
2010-04-27 05:57:57 51°13.663 2°55.959 127.1 -999 334 -999
2010-04-27 05:58:03 51°13.663 2°55.959 127 -999 234 -999
2010-04-27 05:58:07 51°13.663 2°55.959 127 -999 234 -999
2010-04-27 05:58:13 51°13.663 2°55.959 127 -999 178 -999
2010-04-27 05:58:17 51°13.663 2°55.959 127 -999 162 -999
2010-04-27 05:58:22 51°13.663 2°55.959 127 -999 178 -999
2010-04-27 05:58:27 51°13.662 2°55.959 127 0.1 184 -999
2010-04-27 05:58:32 51°13.663 2°55.959 127.1 -999 152 -999
2010-04-27 05:58:38 51°13.662 2°55.959 127.1 -999 178 -999
2010-04-27 05:58:42 51°13.663 2°55.959 127.1 -999 152 -999
2010-04-27 05:58:47 51°13.663 2°55.959 127.1 -999 355 -999
2010-04-27 05:58:52 51°13.663 2°55.959 127.1 -999 122 -999
2010-04-27 05:58:58 51°13.663 2°55.959 127.1 -999 197 -999
2010-04-27 05:59:02 51°13.663 2°55.959 127.1 -999 200 -999
2010-04-27 05:59:07 51°13.663 2°55.96 127 -999 49 -999
2010-04-27 05:59:12 51°13.663 2°55.96 127 -999 240 -999
2010-04-27 05:59:18 51°13.663 2°55.96 126.9 -999 18 -999
2010-04-27 05:59:22 51°13.663 2°55.96 126.7 -999 323 -999
2010-04-27 05:59:27 51°13.663 2°55.96 126.7 -999 304 -999
2010-04-27 05:59:32 51°13.663 2°55.96 126.6 -999 55 -999
2010-04-27 05:59:37 51°13.663 2°55.96 126.5 -999 179 -999
2010-04-27 05:59:42 51°13.663 2°55.96 126.5 -999 300 -999
2010-04-27 05:59:47 51°13.663 2°55.96 126.5 -999 351 -999
2010-04-27 05:59:52 51°13.663 2°55.96 126.5 -999 317 -999
2010-04-27 05:59:57 51°13.663 2°55.96 126.5 -999 144 -999
2010-04-27 06:00:03 51°13.663 2°55.96 126.5 -999 21 -999
2010-04-27 06:00:08 51°13.663 2°55.96 126.5 -999 159 -999
2010-04-27 06:00:13 51°13.663 2°55.96 126.5 -999 202 -999
2010-04-27 06:00:17 51°13.663 2°55.96 126.5 -999 319 -999
2010-04-27 06:00:23 51°13.663 2°55.96 126.6 -999 1 -999
2010-04-27 06:00:28 51°13.663 2°55.96 126.6 -999 347 -999
2010-04-27 06:00:33 51°13.663 2°55.96 126.6 -999 22 -999
2010-04-27 06:00:37 51°13.663 2°55.96 126.6 -999 337 -999
2010-04-27 06:00:43 51°13.663 2°55.96 126.6 -999 43 -999
2010-04-27 06:00:48 51°13.663 2°55.96 126.6 -999 139 -999
2010-04-27 06:00:52 51°13.663 2°55.96 126.6 -999 14 -999
2010-04-27 06:00:57 51°13.663 2°55.96 126.6 -999 209 -999
2010-04-27 06:01:02 51°13.663 2°55.96 126.6 -999 25 -999
2010-04-27 06:01:07 51°13.663 2°55.96 126.6 -999 182 -999
2010-04-27 06:01:13 51°13.663 2°55.96 126.6 -999 203 -999
2010-04-27 06:01:18 51°13.663 2°55.96 126.6 -999 193 -999
2010-04-27 06:01:22 51°13.663 2°55.96 126.6 0.1 3 -999
2010-04-27 06:01:27 51°13.663 2°55.96 126.6 -999 183 -999
2010-04-27 06:01:32 51°13.663 2°55.96 126.6 -999 4 -999
2010-04-27 06:01:38 51°13.663 2°55.96 126.6 -999 355 -999
2010-04-27 06:01:42 51°13.663 2°55.961 126.6 -999 22 -999
2010-04-27 06:01:47 51°13.663 2°55.961 126.6 -999 4 -999
2010-04-27 06:01:52 51°13.663 2°55.961 126.6 -999 221 -999
2010-04-27 06:01:58 51°13.663 2°55.96 126.7 -999 240 -999
2010-04-27 06:02:02 51°13.663 2°55.96 126.7 0.1 179 -999
2010-04-27 06:02:07 51°13.663 2°55.96 126.6 -999 292 -999
2010-04-27 06:02:12 51°13.663 2°55.96 126.6 -999 342 -999
2010-04-27 06:02:17 51°13.663 2°55.96 126.6 -999 196 -999
2010-04-27 06:02:22 51°13.663 2°55.96 126.6 -999 187 -999
2010-04-27 06:02:27 51°13.663 2°55.96 126.6 0.1 7 -999
2010-04-27 06:02:32 51°13.663 2°55.96 126.6 -999 340 -999
2010-04-27 06:02:37 51°13.663 2°55.96 126.5 0.1 15 -999
2010-04-27 06:02:43 51°13.663 2°55.96 126.5 -999 182 -999
2010-04-27 06:02:48 51°13.663 2°55.96 126.5 0.1 16 -999
2010-04-27 06:02:52 51°13.663 2°55.96 126.5 -999 199 -999
2010-04-27 06:02:57 51°13.663 2°55.96 126.5 -999 144 -999
2010-04-27 06:03:02 51°13.663 2°55.96 126.5 -999 228 -999
2010-04-27 06:03:08 51°13.663 2°55.96 126.5 -999 119 -999
2010-04-27 06:03:13 51°13.663 2°55.96 126.5 -999 344 -999
2010-04-27 06:03:17 51°13.663 2°55.96 126.5 -999 189 -999
2010-04-27 06:03:23 51°13.663 2°55.96 126.7 0.1 21 -999
2010-04-27 06:03:27 51°13.663 2°55.96 126.8 -999 172 -999
2010-04-27 06:03:32 51°13.663 2°55.96 126.9 -999 139 -999
2010-04-27 06:03:37 51°13.663 2°55.96 127 -999 164 -999
2010-04-27 06:03:42 51°13.663 2°55.96 127 -999 126 -999
2010-04-27 06:03:47 51°13.663 2°55.96 127.1 -999 157 -999
2010-04-27 06:03:53 51°13.663 2°55.96 127.2 -999 178 -999
2010-04-27 06:03:58 51°13.663 2°55.96 127.2 -999 227 -999
2010-04-27 06:04:02 51°13.663 2°55.96 127.1 -999 215 -999
2010-04-27 06:04:07 51°13.663 2°55.96 127.1 -999 342 -999
2010-04-27 06:04:12 51°13.663 2°55.96 126.9 -999 279 -999
2010-04-27 06:04:18 51°13.663 2°55.96 126.8 -999 330 -999
2010-04-27 06:04:22 51°13.663 2°55.96 126.7 0.1 343 -999
2010-04-27 06:04:27 51°13.662 2°55.959 126.6 0.1 177 -999
2010-04-27 06:04:32 51°13.662 2°55.959 126.6 -999 204 -999
2010-04-27 06:04:37 51°13.662 2°55.959 126.6 -999 270 -999
2010-04-27 06:04:42 51°13.662 2°55.959 126.6 -999 131 -999
2010-04-27 06:04:47 51°13.662 2°55.959 126.6 -999 219 4.6
2010-04-27 06:04:52 51°13.662 2°55.959 126.7 0.1 347 4.6
2010-04-27 06:04:57 51°13.662 2°55.959 126.7 -999 335 4.6
2010-04-27 06:05:02 51°13.662 2°55.959 126.7 -999 187 -999
2010-04-27 06:05:07 51°13.662 2°55.959 126.7 -999 10 4.6
2010-04-27 06:05:12 51°13.663 2°55.959 126.7 0.1 4 4.6
2010-04-27 06:05:17 51°13.662 2°55.959 126.7 -999 126 -999
2010-04-27 06:05:22 51°13.662 2°55.959 126.8 -999 193 4.6
2010-04-27 06:05:27 51°13.662 2°55.959 126.8 0.1 -999 4.6
2010-04-27 06:05:32 51°13.662 2°55.959 126.8 -999 352 4.6
2010-04-27 06:05:36 51°13.662 2°55.959 126.8 -999 188 4.6
2010-04-27 06:05:41 51°13.662 2°55.959 126.8 -999 169 -999
2010-04-27 06:05:47 51°13.662 2°55.959 126.8 -999 128 4.5
2010-04-27 06:05:52 51°13.662 2°55.959 126.8 -999 3 4.6
2010-04-27 06:05:57 51°13.662 2°55.959 126.8 -999 124 -999
2010-04-27 06:06:02 51°13.662 2°55.959 126.8 -999 16 -999
2010-04-27 06:06:07 51°13.662 2°55.959 126.9 -999 359 -999
2010-04-27 06:06:12 51°13.662 2°55.959 126.9 -999 32 4.5
2010-04-27 06:06:17 51°13.662 2°55.959 126.9 0.1 13 -999
2010-04-27 06:06:22 51°13.662 2°55.959 126.7 -999 236 -999
2010-04-27 06:06:27 51°13.662 2°55.959 126.6 -999 323 4.6
2010-04-27 06:06:32 51°13.662 2°55.959 126.6 0.1 11 4.6
2010-04-27 06:06:37 51°13.663 2°55.959 126.6 0.1 2 4.5
2010-04-27 06:06:42 51°13.662 2°55.959 126.6 0.1 12 4.8
2010-04-27 06:06:47 51°13.662 2°55.959 126.6 -999 210 4.8
2010-04-27 06:06:52 51°13.662 2°55.959 126.5 -999 32 4.5
2010-04-27 06:06:57 51°13.662 2°55.959 126.5 -999 219 -999
2010-04-27 06:07:02 51°13.662 2°55.959 126.5 -999 134 4.8
2010-04-27 06:07:07 51°13.662 2°55.959 126.5 0.1 215 4.6
2010-04-27 06:07:11 51°13.662 2°55.959 126.5 -999 78 4.6
2010-04-27 06:07:17 51°13.662 2°55.959 126.5 -999 341 4.6
2010-04-27 06:07:21 51°13.662 2°55.959 126.5 -999 240 -999
2010-04-27 06:07:26 51°13.662 2°55.959 126.4 -999 230 4.5
2010-04-27 06:07:31 51°13.662 2°55.959 126.4 -999 227 -999
2010-04-27 06:07:36 51°13.662 2°55.959 126.4 -999 113 4.8
2010-04-27 06:07:41 51°13.662 2°55.959 126.4 0.1 177 4.6
2010-04-27 06:07:46 51°13.662 2°55.959 126.4 0.1 330 4.6
2010-04-27 06:07:51 51°13.662 2°55.959 126.4 -999 340 4.6
2010-04-27 06:07:57 51°13.662 2°55.959 126.4 -999 189 4.6
2010-04-27 06:08:01 51°13.662 2°55.959 126.4 -999 89 4.6
2010-04-27 06:08:05 51°13.662 2°55.959 126.4 0.1 174 4.6
2010-04-27 06:08:10 51°13.662 2°55.959 126.4 -999 301 4.6
2010-04-27 06:08:16 51°13.662 2°55.959 126.4 -999 10 4.6
2010-04-27 06:08:21 51°13.662 2°55.959 126.4 -999 356 4.5
2010-04-27 06:08:25 51°13.662 2°55.959 126.4 -999 6 4.6
2010-04-27 06:08:30 51°13.662 2°55.959 126.4 -999 106 4.6
2010-04-27 06:08:36 51°13.662 2°55.959 126.4 0.1 190 4.6
2010-04-27 06:08:42 51°13.662 2°55.959 126.4 0.1 183 -999
2010-04-27 06:08:45 51°13.662 2°55.959 126.4 -999 304 4.6
2010-04-27 06:08:50 51°13.662 2°55.959 126.4 0.1 13 4.5
2010-04-27 06:08:56 51°13.662 2°55.959 126.4 -999 288 -999
2010-04-27 06:09:01 51°13.662 2°55.959 126.4 -999 6 4.5
2010-04-27 06:09:06 51°13.662 2°55.959 126.4 -999 357 -999
2010-04-27 06:09:11 51°13.662 2°55.959 126.4 -999 179 4.5
2010-04-27 06:09:16 51°13.662 2°55.959 126.4 0.1 179 4.5
2010-04-27 06:09:21 51°13.662 2°55.959 126.4 -999 175 4.6
2010-04-27 06:09:26 51°13.662 2°55.959 126.4 0.1 350 -999
2010-04-27 06:09:31 51°13.662 2°55.959 126.4 -999 174 4.5
2010-04-27 06:09:36 51°13.662 2°55.959 126.4 -999 203 4.6
2010-04-27 06:09:41 51°13.662 2°55.959 126.4 -999 9 4.6
2010-04-27 06:09:46 51°13.662 2°55.959 126.4 -999 150 4.5
2010-04-27 06:09:51 51°13.662 2°55.959 126.4 0.1 169 -999
2010-04-27 06:09:57 51°13.662 2°55.959 126.4 0.1 190 4.6
2010-04-27 06:10:01 51°13.662 2°55.959 126.4 -999 11 4.6
2010-04-27 06:10:06 51°13.662 2°55.959 126.3 -999 325 4.6
2010-04-27 06:10:12 51°13.662 2°55.959 126.3 0.1 359 4.6
2010-04-27 06:10:16 51°13.662 2°55.959 126.3 0.1 359 4.6
2010-04-27 06:10:21 51°13.662 2°55.959 126.2 -999 92 4.6
2010-04-27 06:10:25 51°13.662 2°55.959 126.2 -999 293 4.6
2010-04-27 06:10:31 51°13.662 2°55.959 126.2 -999 16 4.5
2010-04-27 06:10:35 51°13.662 2°55.959 126.2 -999 345 4.6
2010-04-27 06:10:40 51°13.662 2°55.959 126.2 -999 347 4.6
2010-04-27 06:10:45 51°13.662 2°55.959 126.2 -999 16 4.6
2010-04-27 06:10:49 51°13.662 2°55.959 126.2 -999 200 4.6
2010-04-27 06:10:54 51°13.662 2°55.959 126.2 -999 357 4.6
2010-04-27 06:10:59 51°13.662 2°55.959 126.2 -999 328 4.5
2010-04-27 06:11:05 51°13.662 2°55.959 126 -999 348 4.6
2010-04-27 06:11:09 51°13.662 2°55.959 125.9 0.1 345 4.6
2010-04-27 06:11:14 51°13.662 2°55.959 125.7 -999 309 4.6
2010-04-27 06:11:19 51°13.662 2°55.959 125.6 0.1 355 4.6
2010-04-27 06:11:24 51°13.662 2°55.959 125.3 -999 18 4.5
2010-04-27 06:11:29 51°13.662 2°55.959 125.1 -999 293 4.6
2010-04-27 06:11:33 51°13.662 2°55.959 124.9 -999 357 4.6
2010-04-27 06:11:38 51°13.662 2°55.959 124.8 -999 160 4.6
2010-04-27 06:11:45 51°13.662 2°55.959 124.8 -999 161 4.6
2010-04-27 06:11:50 51°13.662 2°55.959 124.8 -999 102 4.6
2010-04-27 06:11:53 51°13.662 2°55.959 124.8 0.1 177 4.6
2010-04-27 06:11:58 51°13.662 2°55.959 124.9 -999 146 4.6
2010-04-27 06:12:03 51°13.662 2°55.959 124.9 -999 169 4.6
2010-04-27 06:12:08 51°13.663 2°55.959 124.9 0.1 6 4.6
2010-04-27 06:12:13 51°13.663 2°55.959 124.9 -999 326 4.6
2010-04-27 06:12:18 51°13.663 2°55.959 124.9 0.1 344 4.6
2010-04-27 06:12:23 51°13.663 2°55.959 124.9 -999 3 4.6
2010-04-27 06:12:28 51°13.663 2°55.959 124.9 -999 211 4.6
2010-04-27 06:12:33 51°13.662 2°55.959 124.9 -999 20 4.6
2010-04-27 06:12:38 51°13.662 2°55.959 124.9 0.1 14 4.6
2010-04-27 06:12:43 51°13.662 2°55.959 124.9 -999 151 4.6
2010-04-27 06:12:49 51°13.662 2°55.959 124.9 -999 351 4.6
2010-04-27 06:12:54 51°13.662 2°55.96 124.9 -999 173 4.6
2010-04-27 06:12:58 51°13.662 2°55.96 124.9 -999 245 4.6
2010-04-27 06:13:04 51°13.662 2°55.96 124.9 -999 15 4.5
2010-04-27 06:13:09 51°13.662 2°55.96 124.9 -999 359 4.6
2010-04-27 06:13:14 51°13.662 2°55.96 124.9 -999 352 4.6
2010-04-27 06:13:18 51°13.662 2°55.96 124.9 -999 356 4.6
2010-04-27 06:13:23 51°13.662 2°55.96 125 0.1 359 4.6
2010-04-27 06:13:28 51°13.662 2°55.96 125 -999 218 4.6
2010-04-27 06:13:34 51°13.662 2°55.96 125 -999 13 4.6
2010-04-27 06:13:38 51°13.662 2°55.96 125 -999 79 4.6
2010-04-27 06:13:43 51°13.662 2°55.96 125.1 0.1 143 4.6
2010-04-27 06:13:49 51°13.662 2°55.96 125.6 0.1 142 4.6
2010-04-27 06:13:54 51°13.662 2°55.96 126.1 0.1 166 4.6
2010-04-27 06:13:58 51°13.662 2°55.96 126.4 0.1 179 4.7
2010-04-27 06:14:03 51°13.662 2°55.96 126.8 -999 192 4.6
2010-04-27 06:14:08 51°13.662 2°55.96 127.1 -999 327 4.6
2010-04-27 06:14:14 51°13.662 2°55.96 127.2 -999 354 4.6
2010-04-27 06:14:18 51°13.662 2°55.96 127.2 0.1 348 4.6
2010-04-27 06:14:23 51°13.662 2°55.961 127.1 0.1 359 4.6
2010-04-27 06:14:29 51°13.662 2°55.961 126.9 -999 317 4.6
2010-04-27 06:14:34 51°13.662 2°55.961 126.7 0.1 347 4.7
2010-04-27 06:14:38 51°13.662 2°55.961 126.6 -999 313 4.6
2010-04-27 06:14:43 51°13.662 2°55.961 126.4 -999 261 4.6
2010-04-27 06:14:48 51°13.662 2°55.961 126.3 -999 187 4.6
2010-04-27 06:14:54 51°13.662 2°55.961 126 0.1 355 -999
2010-04-27 06:14:58 51°13.662 2°55.961 125.8 0.1 343 4.6
2010-04-27 06:15:04 51°13.662 2°55.961 125.6 -999 327 4.6
2010-04-27 06:15:09 51°13.662 2°55.961 125.5 -999 15 4.7
2010-04-27 06:15:14 51°13.662 2°55.96 125.5 -999 163 4.6
2010-04-27 06:15:19 51°13.662 2°55.96 125.5 0.1 160 4.6
2010-04-27 06:15:24 51°13.662 2°55.961 125.8 -999 127 4.6
2010-04-27 06:15:29 51°13.662 2°55.961 126 -999 39 4.6
2010-04-27 06:15:34 51°13.662 2°55.961 126.5 -999 115 4.6
2010-04-27 06:15:39 51°13.662 2°55.961 127.1 -999 112 4.6
2010-04-27 06:15:43 51°13.662 2°55.961 127.5 0.1 18 4.6
2010-04-27 06:15:49 51°13.662 2°55.961 127.6 0.1 16 4.6
2010-04-27 06:15:54 51°13.662 2°55.961 127.7 -999 77 4.6
2010-04-27 06:15:59 51°13.662 2°55.961 127.7 -999 94 4.6
2010-04-27 06:16:04 51°13.662 2°55.961 127.8 0.1 209 4.7
2010-04-27 06:16:08 51°13.662 2°55.961 127.9 -999 359 4.6
2010-04-27 06:16:14 51°13.662 2°55.961 128.1 -999 201 4.6
2010-04-27 06:16:19 51°13.662 2°55.961 128.2 -999 341 4.7
2010-04-27 06:16:24 51°13.662 2°55.961 128.2 -999 182 4.6
2010-04-27 06:16:28 51°13.662 2°55.961 128.2 -999 337 4.6
2010-04-27 06:16:34 51°13.662 2°55.961 128.2 -999 174 4.6
2010-04-27 06:16:39 51°13.662 2°55.96 128.2 -999 189 4.6
2010-04-27 06:16:43 51°13.662 2°55.96 128.2 -999 355 4.6
2010-04-27 06:16:49 51°13.662 2°55.96 128.2 -999 343 4.7
2010-04-27 06:16:54 51°13.662 2°55.96 128.2 -999 181 4.6
2010-04-27 06:16:59 51°13.662 2°55.96 128.2 -999 336 4.6
2010-04-27 06:17:03 51°13.662 2°55.96 128.2 -999 9 4.6
2010-04-27 06:17:08 51°13.662 2°55.96 128.2 -999 7 4.6
2010-04-27 06:17:14 51°13.662 2°55.96 128.3 -999 175 4.6
2010-04-27 06:17:19 51°13.662 2°55.96 128.3 -999 180 4.5
2010-04-27 06:17:24 51°13.662 2°55.96 128.3 0.1 190 4.6
2010-04-27 06:17:29 51°13.662 2°55.96 128.3 -999 249 4.6
2010-04-27 06:17:34 51°13.662 2°55.96 128.5 -999 259 4.6
2010-04-27 06:17:39 51°13.662 2°55.96 128.8 0.1 216 4.6
2010-04-27 06:17:44 51°13.662 2°55.96 129.1 0.1 227 4.7
2010-04-27 06:17:48 51°13.662 2°55.96 129.3 0.1 222 4.7
2010-04-27 06:17:54 51°13.662 2°55.959 129.6 0.1 211 4.6
2010-04-27 06:17:59 51°13.662 2°55.959 130 -999 193 4.7
2010-04-27 06:18:03 51°13.662 2°55.959 130.1 -999 93 4.7
2010-04-27 06:18:09 51°13.662 2°55.959 130.1 -999 108 4.6
2010-04-27 06:18:14 51°13.662 2°55.96 130.1 -999 80 4.7
2010-04-27 06:18:19 51°13.662 2°55.96 129.6 0.1 79 4.7
2010-04-27 06:18:24 51°13.662 2°55.96 128.6 0.1 51 4.7
2010-04-27 06:18:29 51°13.662 2°55.96 127.7 0.1 66 4.7
2010-04-27 06:18:34 51°13.662 2°55.96 126.5 -999 212 4.6
2010-04-27 06:18:39 51°13.662 2°55.96 125.5 -999 6 4.7
2010-04-27 06:18:44 51°13.661 2°55.961 125.1 -999 175 4.7
2010-04-27 06:18:49 51°13.661 2°55.961 124.8 0.1 189 4.7
2010-04-27 06:18:54 51°13.662 2°55.96 124.2 -999 338 4.7
2010-04-27 06:18:59 51°13.661 2°55.96 123.7 -999 176 4.7
2010-04-27 06:19:03 51°13.661 2°55.96 123 -999 207 4.7
2010-04-27 06:19:09 51°13.661 2°55.96 122.6 -999 289 4.7
2010-04-27 06:19:14 51°13.661 2°55.96 122 -999 328 4.7
2010-04-27 06:19:19 51°13.661 2°55.96 121.3 -999 200 4.7
2010-04-27 06:19:23 51°13.661 2°55.96 120.6 0.1 184 4.7
2010-04-27 06:19:28 51°13.661 2°55.96 120 0.1 185 4.7
2010-04-27 06:19:34 51°13.661 2°55.96 119.1 -999 206 4.7
2010-04-27 06:19:39 51°13.661 2°55.96 118.5 -999 213 4.7
2010-04-27 06:19:43 51°13.661 2°55.96 117.7 -999 208 4.8
2010-04-27 06:19:49 51°13.661 2°55.96 117 0.1 192 4.7
2010-04-27 06:19:54 51°13.661 2°55.96 116.2 -999 238 4.7
2010-04-27 06:19:59 51°13.66 2°55.96 115.4 0.1 184 4.8
2010-04-27 06:20:04 51°13.661 2°55.96 114.6 0.1 194 4.7
2010-04-27 06:20:08 51°13.66 2°55.96 114 -999 123 4.7
2010-04-27 06:20:14 51°13.66 2°55.96 113.2 0.1 189 4.7
2010-04-27 06:20:19 51°13.661 2°55.961 112.5 0.1 194 4.8
2010-04-27 06:20:23 51°13.661 2°55.961 111.5 -999 282 4.8
2010-04-27 06:20:29 51°13.661 2°55.961 111.1 -999 318 4.7
2010-04-27 06:20:34 51°13.661 2°55.961 110.6 0.1 295 4.7
2010-04-27 06:20:39 51°13.661 2°55.959 110.5 0.5 286 4.7
2010-04-27 06:20:43 51°13.662 2°55.958 110.5 0.9 292 4.7
2010-04-27 06:20:48 51°13.662 2°55.955 110.6 1.2 291 4.8
2010-04-27 06:20:54 51°13.663 2°55.951 110.8 1.8 293 4.9
2010-04-27 06:20:59 51°13.665 2°55.946 110.8 2.4 292 5.1
2010-04-27 06:21:03 51°13.666 2°55.941 110.8 2.7 294 -999
2010-04-27 06:21:10 51°13.668 2°55.933 110.7 2.9 292 -999
2010-04-27 06:21:16 51°13.67 2°55.925 110.7 3.2 295 -999
2010-04-27 06:21:22 51°13.672 2°55.917 110.6 3.4 293 -999
2010-04-27 06:21:27 51°13.674 2°55.91 110.3 3.5 293 -999
2010-04-27 06:21:32 51°13.676 2°55.902 109.4 3.6 291 -999
2010-04-27 06:21:37 51°13.677 2°55.895 108 3.7 289 -999
2010-04-27 06:21:42 51°13.679 2°55.887 106.4 3.8 288 -999
2010-04-27 06:21:47 51°13.68 2°55.879 104.7 3.9 286 -999
2010-04-27 06:21:52 51°13.681 2°55.871 103.2 4 285 -999
2010-04-27 06:21:57 51°13.682 2°55.862 101.9 4.1 283 -999
2010-04-27 06:22:02 51°13.684 2°55.853 100.7 3.9 281 -999
2010-04-27 06:22:07 51°13.685 2°55.844 99.5 3.9 280 -999
2010-04-27 06:22:12 51°13.686 2°55.836 98.6 3.7 281 -999
2010-04-27 06:22:17 51°13.687 2°55.828 97.3 3.6 279 -999
2010-04-27 06:22:22 51°13.688 2°55.82 96.3 3.5 279 -999
2010-04-27 06:22:27 51°13.688 2°55.813 95.2 3.4 278 -999
2010-04-27 06:22:32 51°13.689 2°55.805 94.3 3.3 277 9.5
2010-04-27 06:22:37 51°13.689 2°55.799 93.3 3.2 278 10.2
2010-04-27 06:22:42 51°13.69 2°55.792 92.5 3.1 277 4.5
2010-04-27 06:22:47 51°13.69 2°55.785 91 2.9 276 10.7
2010-04-27 06:22:51 51°13.69 2°55.781 90 2.7 275 10.7
2010-04-27 06:22:57 51°13.691 2°55.776 88.4 1.8 275 -999
2010-04-27 06:23:02 51°13.691 2°55.773 85.5 1.3 281 4.6
2010-04-27 06:23:07 51°13.691 2°55.771 80.6 0.9 278 4.6
2010-04-27 06:23:12 51°13.692 2°55.77 76.4 0.6 296 -999
2010-04-27 06:23:17 51°13.692 2°55.769 72.2 0.4 305 4.5
2010-04-27 06:23:22 51°13.692 2°55.769 68.3 0.3 331 -999
2010-04-27 06:23:27 51°13.693 2°55.769 64.4 0.5 354 -999
2010-04-27 06:23:32 51°13.693 2°55.769 60.4 0.4 13 4.5
2010-04-27 06:23:37 51°13.694 2°55.769 56.4 0.5 4 -999
2010-04-27 06:23:42 51°13.695 2°55.769 52.5 0.3 4 -999
2010-04-27 06:23:47 51°13.695 2°55.769 50.1 0.4 339 -999
2010-04-27 06:23:52 51°13.695 2°55.769 48.2 0.3 311 -999
2010-04-27 06:23:57 51°13.695 2°55.768 46.1 0.4 273 -999
2010-04-27 06:24:02 51°13.696 2°55.766 43.8 0.6 246 -999
2010-04-27 06:24:07 51°13.695 2°55.764 42.1 0.8 241 -999
2010-04-27 06:24:12 51°13.694 2°55.762 40.7 1 237 -999
2010-04-27 06:24:17 51°13.693 2°55.76 38.8 1.3 228 -999
2010-04-27 06:24:22 51°13.692 2°55.758 37.1 1.2 230 -999
2010-04-27 06:24:27 51°13.69 2°55.757 35.4 1.3 222 -999
2010-04-27 06:24:32 51°13.689 2°55.755 34.2 1.1 229 -999
2010-04-27 06:24:37 51°13.689 2°55.754 32.7 0.4 242 -999
2010-04-27 06:24:42 51°13.689 2°55.754 30.5 0.6 358 -999
2010-04-27 06:24:47 51°13.691 2°55.754 24.5 1 7 -999
2010-04-27 06:24:52 51°13.692 2°55.755 19 1.4 4 -999
2010-04-27 06:24:57 51°13.695 2°55.755 12.1 1.7 -999 -999
2010-04-27 06:25:02 51°13.698 2°55.754 5.2 2.1 355 -999
2010-04-27 06:25:07 51°13.701 2°55.753 358.2 2.4 349 5
2010-04-27 06:25:11 51°13.704 2°55.751 351 2.9 342 -999
2010-04-27 06:25:17 51°13.71 2°55.748 345.1 3.4 336 4.7
2010-04-27 06:25:22 51°13.714 2°55.744 338.5 3.8 332 -999
2010-04-27 06:25:27 51°13.72 2°55.739 334.3 4.2 332 -999
2010-04-27 06:25:32 51°13.725 2°55.734 332 4.7 329 -999
2010-04-27 06:25:37 51°13.731 2°55.728 331.2 5 330 -999
2010-04-27 06:25:42 51°13.737 2°55.722 330.9 5.4 328 -999
2010-04-27 06:25:47 51°13.744 2°55.715 330.4 5.7 328 -999
2010-04-27 06:25:52 51°13.752 2°55.708 330.7 6.1 330 10.6
2010-04-27 06:25:57 51°13.759 2°55.7 331.1 6.3 328 10.2
2010-04-27 06:26:02 51°13.767 2°55.693 331.1 6.5 329 -999
2010-04-27 06:26:07 51°13.774 2°55.685 330.7 6.7 328 10
2010-04-27 06:26:11 51°13.781 2°55.679 330.5 6.9 330 9.9
2010-04-27 06:26:17 51°13.791 2°55.669 330.8 7.1 330 9.9
2010-04-27 06:26:22 51°13.8 2°55.661 331.7 7.3 331 -999
2010-04-27 06:26:27 51°13.809 2°55.654 332.5 7.3 332 -999
2010-04-27 06:26:31 51°13.816 2°55.648 333.2 7.4 332 9.9
2010-04-27 06:26:37 51°13.827 2°55.638 333.2 7.6 333 -999
2010-04-27 06:26:42 51°13.837 2°55.631 333.7 7.7 334 10.9
2010-04-27 06:26:47 51°13.846 2°55.623 334.8 7.7 334 4.6
2010-04-27 06:26:51 51°13.854 2°55.618 335.3 7.8 335 4.6
2010-04-27 06:26:56 51°13.864 2°55.61 335.9 7.9 335 -999
2010-04-27 06:27:01 51°13.874 2°55.602 336 7.9 334 4.5
2010-04-27 06:27:07 51°13.886 2°55.593 335.5 8 335 10
2010-04-27 06:27:11 51°13.894 2°55.587 335.5 8.1 335 9.7
2010-04-27 06:27:16 51°13.904 2°55.58 336.3 8.1 335 10.2
2010-04-27 06:27:21 51°13.914 2°55.572 337 8.1 335 -999
2010-04-27 06:27:27 51°13.927 2°55.564 337.3 8.3 336 10
2010-04-27 06:27:32 51°13.938 2°55.557 337.6 8.3 337 -999
2010-04-27 06:27:37 51°13.948 2°55.55 338.7 8.4 338 10.1
2010-04-27 06:27:42 51°13.959 2°55.542 338.8 8.5 336 10.2
2010-04-27 06:27:47 51°13.97 2°55.535 337.9 8.5 336 9.9
2010-04-27 06:27:51 51°13.978 2°55.529 337.6 8.5 337 9.9
2010-04-27 06:27:56 51°13.989 2°55.521 338.1 8.6 336 9.8
2010-04-27 06:28:01 51°14 2°55.513 337.9 8.6 336 9.8
2010-04-27 06:28:06 51°14.011 2°55.505 337.6 8.7 336 9.7
2010-04-27 06:28:11 51°14.022 2°55.497 337.6 8.7 336 -999
2010-04-27 06:28:16 51°14.033 2°55.49 337.6 8.7 337 9.7
2010-04-27 06:28:21 51°14.044 2°55.482 338.9 8.8 338 9.7
2010-04-27 06:28:26 51°14.055 2°55.474 339.5 8.9 336 9.7
2010-04-27 06:28:31 51°14.067 2°55.467 339.1 9 337 -999
2010-04-27 06:28:37 51°14.081 2°55.457 339 9 336 -999
2010-04-27 06:28:42 51°14.092 2°55.449 339 9.1 336 -999
2010-04-27 06:28:47 51°14.104 2°55.44 338.4 9.2 335 9.8
2010-04-27 06:28:51 51°14.113 2°55.434 338.2 9.3 336 9.8
2010-04-27 06:28:57 51°14.127 2°55.424 338.3 9.3 336 9.8
2010-04-27 06:29:02 51°14.14 2°55.416 338.7 9.4 336 9.8
2010-04-27 06:29:07 51°14.152 2°55.408 338.4 9.5 335 10
2010-04-27 06:29:12 51°14.164 2°55.398 337.6 9.5 334 -999
2010-04-27 06:29:17 51°14.175 2°55.389 336.7 9.5 333 -999
2010-04-27 06:29:22 51°14.187 2°55.379 335.4 9.6 332 -999
2010-04-27 06:29:27 51°14.198 2°55.368 334 9.6 331 9.8
2010-04-27 06:29:31 51°14.207 2°55.359 333.1 9.6 330 9.8
2010-04-27 06:29:36 51°14.219 2°55.348 332 9.7 329 9.2
2010-04-27 06:29:41 51°14.23 2°55.337 331.4 9.7 330 9.3
2010-04-27 06:29:46 51°14.242 2°55.326 331.5 9.8 330 9
2010-04-27 06:29:51 51°14.254 2°55.315 332.1 9.9 330 9.3
2010-04-27 06:29:55 51°14.263 2°55.306 331.7 9.9 329 9.2
2010-04-27 06:30:00 51°14.275 2°55.295 330.9 10 329 9.2
2010-04-27 06:30:05 51°14.287 2°55.283 330.5 10.1 329 9.7
2010-04-27 06:30:11 51°14.301 2°55.269 330.6 10.3 329 9.4
2010-04-27 06:30:15 51°14.311 2°55.26 330.7 10.3 328 9.6
2010-04-27 06:30:20 51°14.324 2°55.248 330.6 10.4 328 9.6
2010-04-27 06:30:25 51°14.336 2°55.235 329.7 10.5 327 9.1
2010-04-27 06:30:30 51°14.348 2°55.223 329.3 10.6 329 9.6
2010-04-27 06:30:35 51°14.361 2°55.211 329.5 10.7 328 8.9
2010-04-27 06:30:39 51°14.371 2°55.201 330 10.8 329 9.6
2010-04-27 06:30:44 51°14.384 2°55.188 329.9 10.9 327 9.5
2010-04-27 06:30:49 51°14.397 2°55.175 329.6 10.9 328 9.6
2010-04-27 06:30:54 51°14.41 2°55.162 329.5 11.2 328 9.6
2010-04-27 06:30:59 51°14.423 2°55.149 329.9 11.4 329 9.5
2010-04-27 06:31:03 51°14.434 2°55.139 330.6 11.6 330 9.3
2010-04-27 06:31:08 51°14.448 2°55.126 331.1 11.7 330 9.5
2010-04-27 06:31:13 51°14.463 2°55.113 331.2 12 330 9.3
2010-04-27 06:31:18 51°14.478 2°55.099 331.2 12.1 329 9.5
2010-04-27 06:31:23 51°14.492 2°55.085 330.4 12.3 328 9.2
2010-04-27 06:31:28 51°14.506 2°55.069 328.1 12.6 324 9.2
2010-04-27 06:31:33 51°14.521 2°55.053 326.7 12.9 324 10.3
2010-04-27 06:31:38 51°14.535 2°55.034 325.8 13 319 9.9
2010-04-27 06:31:43 51°14.548 2°55.014 323.7 13.2 315 10.4
2010-04-27 06:31:48 51°14.56 2°54.992 322 13.5 314 10.3
2010-04-27 06:31:53 51°14.574 2°54.971 322.3 13.6 317 10.3
2010-04-27 06:31:58 51°14.588 2°54.951 323.6 13.7 317 10.3
2010-04-27 06:32:03 51°14.603 2°54.931 325.2 13.6 319 10.1
2010-04-27 06:32:08 51°14.617 2°54.911 325.5 13.7 318 10.2
2010-04-27 06:32:13 51°14.631 2°54.891 326 13.6 320 10.4
2010-04-27 06:32:18 51°14.646 2°54.872 326.7 13.7 320 10.3
2010-04-27 06:32:23 51°14.661 2°54.852 327.2 13.8 321 10.5
2010-04-27 06:32:28 51°14.675 2°54.833 327.6 13.8 321 10.7
2010-04-27 06:32:33 51°14.691 2°54.815 328.3 13.8 322 10.5
2010-04-27 06:32:38 51°14.706 2°54.797 329.8 13.8 324 10.6
2010-04-27 06:32:43 51°14.721 2°54.778 330.2 13.7 323 11
2010-04-27 06:32:48 51°14.736 2°54.761 330.3 13.7 326 10.5
2010-04-27 06:32:53 51°14.752 2°54.744 332 13.7 326 10.7
2010-04-27 06:32:58 51°14.768 2°54.728 333.4 13.6 329 10.7
2010-04-27 06:33:03 51°14.784 2°54.712 334.6 13.6 327 10.6
2010-04-27 06:33:08 51°14.8 2°54.695 333.2 13.6 325 10.4
2010-04-27 06:33:13 51°14.815 2°54.677 330.8 13.7 323 10.8
2010-04-27 06:33:18 51°14.83 2°54.658 329.5 13.6 323 10.7
2010-04-27 06:33:23 51°14.845 2°54.64 329.8 13.7 324 10.4
2010-04-27 06:33:28 51°14.86 2°54.621 328.4 13.8 321 10.6
2010-04-27 06:33:33 51°14.875 2°54.602 327.7 13.8 321 10.5
2010-04-27 06:33:38 51°14.889 2°54.582 327 13.8 320 10.7
2010-04-27 06:33:43 51°14.905 2°54.563 326.7 13.8 322 10.3
2010-04-27 06:33:48 51°14.919 2°54.544 327.4 13.7 321 8.7
2010-04-27 06:33:53 51°14.934 2°54.526 328.2 13.5 322 8.6
2010-04-27 06:33:58 51°14.948 2°54.507 328.5 13.3 320 8.5
2010-04-27 06:34:03 51°14.962 2°54.488 327.9 13.2 318 8.4
2010-04-27 06:34:08 51°14.976 2°54.468 325.5 13.3 314 8.5
2010-04-27 06:34:13 51°14.988 2°54.445 322.1 13.4 309 8.6
2010-04-27 06:34:18 51°14.998 2°54.42 317.1 13.5 300 8.4
2010-04-27 06:34:23 51°15.006 2°54.393 308 13.5 296 8.4
2010-04-27 06:34:28 51°15.011 2°54.365 302.1 13.5 285 7.9
2010-04-27 06:34:33 51°15.014 2°54.335 292.6 13.5 278 7.2
2010-04-27 06:34:38 51°15.015 2°54.305 286.4 13.5 271 7.2
2010-04-27 06:34:43 51°15.014 2°54.275 279.4 13.5 266 7.2
2010-04-27 06:34:48 51°15.011 2°54.246 270.9 13.6 259 7.2
2010-04-27 06:34:53 51°15.005 2°54.217 265.1 13.6 252 7.3
2010-04-27 06:34:58 51°14.998 2°54.189 256.4 13.7 246 7.3
2010-04-27 06:35:03 51°14.989 2°54.162 249.1 13.7 240 -999
2010-04-27 06:35:08 51°14.978 2°54.137 243.5 13.8 234 7.4
2010-04-27 06:35:14 51°14.962 2°54.11 234.5 13.8 227 7.6
2010-04-27 06:35:18 51°14.951 2°54.094 227.2 13.8 221 7.6
2010-04-27 06:35:23 51°14.935 2°54.077 219.5 13.9 214 7.7
2010-04-27 06:35:28 51°14.918 2°54.061 213.6 14 210 7.8
2010-04-27 06:35:33 51°14.901 2°54.047 208 14 207 8
2010-04-27 06:35:38 51°14.883 2°54.034 203.7 14 204 7.9
2010-04-27 06:35:43 51°14.865 2°54.021 200.3 14 204 8
2010-04-27 06:35:48 51°14.847 2°54.01 199.1 14.2 203 7.9
2010-04-27 06:35:53 51°14.829 2°53.997 198.7 14.4 202 7.9
2010-04-27 06:35:58 51°14.81 2°53.986 198.2 14.4 202 8
2010-04-27 06:36:03 51°14.792 2°53.973 197.8 14.4 202 7.9
2010-04-27 06:36:08 51°14.773 2°53.962 197.8 14.4 201 8
2010-04-27 06:36:13 51°14.754 2°53.95 197.4 14.5 202 8.3
2010-04-27 06:36:18 51°14.736 2°53.938 197.6 14.6 202 8.3
2010-04-27 06:36:23 51°14.717 2°53.926 198.1 14.7 202 8.3
2010-04-27 06:36:28 51°14.698 2°53.915 197.7 14.6 201 8.5
2010-04-27 06:36:33 51°14.678 2°53.904 196.5 14.7 199 8.3
2010-04-27 06:36:39 51°14.655 2°53.892 195.6 14.7 199 8.4
2010-04-27 06:36:43 51°14.64 2°53.884 194.9 14.6 197 8.3
2010-04-27 06:36:48 51°14.62 2°53.875 193.7 14.7 197 8.4
2010-04-27 06:36:54 51°14.596 2°53.865 192.8 14.6 195 8.3
2010-04-27 06:36:58 51°14.581 2°53.858 191.7 14.6 195 8.4
2010-04-27 06:37:03 51°14.561 2°53.851 191 14.4 193 8.3
2010-04-27 06:37:08 51°14.542 2°53.844 190.2 14.3 193 8.3
2010-04-27 06:37:13 51°14.523 2°53.837 189.5 14.2 193 8.3
2010-04-27 06:37:18 51°14.503 2°53.83 189.1 14.1 192 8.4
2010-04-27 06:37:23 51°14.484 2°53.823 188.6 14.1 193 8.5
2010-04-27 06:37:28 51°14.465 2°53.817 188.1 14.3 193 8.3
2010-04-27 06:37:34 51°14.441 2°53.808 189.3 14.3 195 8.3
2010-04-27 06:37:39 51°14.422 2°53.8 190.7 14.3 195 8.4
2010-04-27 06:37:43 51°14.407 2°53.792 192 14.3 197 8.3
2010-04-27 06:37:48 51°14.388 2°53.783 192.9 14.3 198 8.3
2010-04-27 06:37:53 51°14.369 2°53.773 193.9 14.3 199 8.2
2010-04-27 06:37:58 51°14.35 2°53.762 195.9 14.4 200 8.3
2010-04-27 06:38:03 51°14.331 2°53.751 197 14.4 201 8.1
2010-04-27 06:38:08 51°14.314 2°53.738 199 14.4 205 8.1
2010-04-27 06:38:13 51°14.296 2°53.723 202.1 14.4 209 8.2
2010-04-27 06:38:18 51°14.279 2°53.705 206.1 14.4 213 8.1
2010-04-27 06:38:23 51°14.263 2°53.687 210.2 14.5 216 8.2
2010-04-27 06:38:28 51°14.247 2°53.666 214.3 14.5 221 8.1
2010-04-27 06:38:33 51°14.233 2°53.644 219 14.4 225 8.2
2010-04-27 06:38:38 51°14.22 2°53.62 223.6 14.4 229 8
2010-04-27 06:38:43 51°14.207 2°53.595 227.9 14.4 230 8.1
2010-04-27 06:38:48 51°14.195 2°53.57 230.2 14.4 233 8.2
2010-04-27 06:38:53 51°14.183 2°53.544 232.4 14.5 232 8.1
2010-04-27 06:38:58 51°14.17 2°53.519 233.1 14.5 234 8.2
2010-04-27 06:39:03 51°14.159 2°53.492 234.1 14.6 234 8.2
2010-04-27 06:39:08 51°14.147 2°53.466 234.6 14.6 235 8.2
2010-04-27 06:39:13 51°14.135 2°53.44 235.1 14.6 235 8.2
2010-04-27 06:39:18 51°14.124 2°53.413 235.4 14.7 235 8.3
2010-04-27 06:39:23 51°14.112 2°53.387 235.6 14.7 234 8.2
2010-04-27 06:39:28 51°14.099 2°53.361 234.8 14.8 231 8.3
2010-04-27 06:39:33 51°14.085 2°53.337 231.6 14.8 229 8.3
2010-04-27 06:39:38 51°14.071 2°53.313 229 14.9 227 8.3
2010-04-27 06:39:43 51°14.057 2°53.289 226.8 14.9 225 8.4
2010-04-27 06:39:48 51°14.042 2°53.266 225 14.8 224 8.4
2010-04-27 06:39:53 51°14.027 2°53.244 223.6 14.7 223 8.4
2010-04-27 06:39:58 51°14.012 2°53.222 222.2 14.7 223 8.4
2010-04-27 06:40:03 51°13.997 2°53.2 221.5 14.8 221 8.4
2010-04-27 06:40:08 51°13.981 2°53.178 221 14.8 222 8.2
2010-04-27 06:40:13 51°13.966 2°53.157 220.7 14.8 222 8.3
2010-04-27 06:40:18 51°13.951 2°53.134 221.5 14.9 225 8.3
2010-04-27 06:40:23 51°13.937 2°53.111 222.6 14.9 225 8.4
2010-04-27 06:40:28 51°13.922 2°53.087 223.7 14.9 227 8.4
2010-04-27 06:40:33 51°13.908 2°53.062 225.8 14.9 228 8.4
2010-04-27 06:40:38 51°13.895 2°53.038 227.1 14.9 229 8.4
2010-04-27 06:40:43 51°13.881 2°53.012 228.3 14.9 229 8.4
2010-04-27 06:40:48 51°13.868 2°52.987 228.9 14.9 230 8.4
2010-04-27 06:40:53 51°13.855 2°52.961 230.1 15 232 8.5
2010-04-27 06:40:58 51°13.842 2°52.935 231.8 15 233 8.4
2010-04-27 06:41:03 51°13.83 2°52.908 233.4 15 234 8.6
2010-04-27 06:41:08 51°13.819 2°52.88 235.1 15 236 8.7
2010-04-27 06:41:13 51°13.807 2°52.853 236.2 15 236 8.5
2010-04-27 06:41:18 51°13.796 2°52.825 236.9 15 236 8.6
2010-04-27 06:41:23 51°13.784 2°52.797 237.5 15 237 8.6
2010-04-27 06:41:28 51°13.773 2°52.77 237.8 15 237 8.6
2010-04-27 06:41:33 51°13.762 2°52.742 238 15 237 8.6
2010-04-27 06:41:38 51°13.75 2°52.714 237.7 15 236 8.6
2010-04-27 06:41:43 51°13.738 2°52.687 236.8 15 235 8.6
2010-04-27 06:41:48 51°13.726 2°52.66 235.9 15 234 8.6
2010-04-27 06:41:53 51°13.714 2°52.633 235 15.1 235 8.6
2010-04-27 06:41:58 51°13.702 2°52.606 234.7 15.1 234 8.6
2010-04-27 06:42:03 51°13.689 2°52.579 234.3 15.1 234 8.7
2010-04-27 06:42:08 51°13.677 2°52.552 234.2 15.1 234 8.6
2010-04-27 06:42:13 51°13.665 2°52.525 234.5 15.1 235 8.6
2010-04-27 06:42:18 51°13.653 2°52.497 235 15.1 236 8.6
2010-04-27 06:42:23 51°13.642 2°52.469 236.7 15 238 8.7
2010-04-27 06:42:28 51°13.631 2°52.441 238.2 15.1 238 8.7
2010-04-27 06:42:33 51°13.62 2°52.412 239.1 15.1 240 8.7
2010-04-27 06:42:38 51°13.609 2°52.383 240.2 15.2 239 8.7
2010-04-27 06:42:43 51°13.599 2°52.354 240.9 15.1 241 8.7
2010-04-27 06:42:48 51°13.589 2°52.325 241.5 15.2 240 8.7
2010-04-27 06:42:53 51°13.578 2°52.296 241.7 15.2 241 8.8
2010-04-27 06:42:58 51°13.568 2°52.267 241.8 15.2 240 8.8
2010-04-27 06:43:03 51°13.557 2°52.238 241.5 15.2 240 8.7
2010-04-27 06:43:08 51°13.546 2°52.209 241 15.2 240 8.8
2010-04-27 06:43:13 51°13.536 2°52.18 240.8 15.2 239 8.7
2010-04-27 06:43:18 51°13.525 2°52.152 240.2 15.2 238 8.8
2010-04-27 06:43:23 51°13.513 2°52.123 239.6 15.2 238 8.7
2010-04-27 06:43:28 51°13.502 2°52.095 239.1 15.2 238 8.8
2010-04-27 06:43:33 51°13.491 2°52.067 238.5 15.2 237 8.8
2010-04-27 06:43:38 51°13.479 2°52.038 238.4 15.2 238 8.8
2010-04-27 06:43:43 51°13.468 2°52.01 238.5 15.2 238 8.8
2010-04-27 06:43:48 51°13.457 2°51.981 238.9 15.2 239 8.8
2010-04-27 06:43:53 51°13.446 2°51.952 239.5 15.3 239 8.8
2010-04-27 06:43:58 51°13.436 2°51.923 240.3 15.2 240 8.8
2010-04-27 06:44:03 51°13.425 2°51.894 240.8 15.2 240 8.9
2010-04-27 06:44:08 51°13.415 2°51.864 241.4 15.2 241 8.9
2010-04-27 06:44:13 51°13.404 2°51.835 241.8 15.3 240 8.9
2010-04-27 06:44:18 51°13.394 2°51.805 242 15.3 241 8.9
2010-04-27 06:44:23 51°13.383 2°51.776 241.9 15.3 240 8.9
2010-04-27 06:44:28 51°13.373 2°51.747 241.7 15.3 240 8.9
2010-04-27 06:44:33 51°13.362 2°51.718 241.2 15.3 239 8.9
2010-04-27 06:44:38 51°13.351 2°51.689 240.4 15.3 238 9
2010-04-27 06:44:43 51°13.34 2°51.66 240 15.3 238 8.9
2010-04-27 06:44:48 51°13.328 2°51.632 239.1 15.3 237 8.9
2010-04-27 06:44:53 51°13.317 2°51.603 238.7 15.3 238 8.9
2010-04-27 06:44:58 51°13.305 2°51.575 238.4 15.3 237 8.9
2010-04-27 06:45:03 51°13.294 2°51.546 238.2 15.3 238 8.9
2010-04-27 06:45:08 51°13.283 2°51.518 238.5 15.3 237 8.9
2010-04-27 06:45:13 51°13.272 2°51.489 238.8 15.3 239 8.9
2010-04-27 06:45:18 51°13.261 2°51.46 239.4 15.3 238 8.9
2010-04-27 06:45:23 51°13.249 2°51.431 239.4 15.3 238 9
2010-04-27 06:45:28 51°13.238 2°51.403 239.3 15.3 238 8.9
2010-04-27 06:45:33 51°13.227 2°51.374 239.6 15.3 239 8.9
2010-04-27 06:45:38 51°13.216 2°51.345 239.9 15.3 239 8.9
2010-04-27 06:45:43 51°13.205 2°51.316 240.3 15.3 239 8.9
2010-04-27 06:45:48 51°13.194 2°51.287 240.3 15.3 239 8.9
2010-04-27 06:45:53 51°13.183 2°51.258 240.3 15.3 238 9
2010-04-27 06:45:58 51°13.172 2°51.229 239.6 15.3 239 9
2010-04-27 06:46:03 51°13.161 2°51.201 239.4 15.3 238 9
2010-04-27 06:46:08 51°13.15 2°51.172 239.2 15.3 238 9.1
2010-04-27 06:46:13 51°13.139 2°51.143 239 15.3 238 9.1
2010-04-27 06:46:18 51°13.128 2°51.114 239 15.3 238 9.1
2010-04-27 06:46:23 51°13.117 2°51.086 238.9 15.3 238 9.1
2010-04-27 06:46:28 51°13.106 2°51.057 238.9 15.3 238 9
2010-04-27 06:46:33 51°13.095 2°51.028 239.1 15.2 239 9
2010-04-27 06:46:38 51°13.083 2°51 239.2 15.3 239 9.1
2010-04-27 06:46:43 51°13.073 2°50.971 239.5 15.2 239 9
2010-04-27 06:46:48 51°13.062 2°50.942 239.9 15.2 239 9.1
2010-04-27 06:46:53 51°13.05 2°50.913 240 15.2 239 9
2010-04-27 06:46:58 51°13.04 2°50.885 239.9 15.2 238 8.9
2010-04-27 06:47:03 51°13.029 2°50.856 239.3 15.2 239 9
2010-04-27 06:47:08 51°13.017 2°50.827 238.9 15.2 238 9
2010-04-27 06:47:13 51°13.006 2°50.799 238.8 15.3 239 9.1
2010-04-27 06:47:18 51°12.995 2°50.77 238.9 15.2 238 9.1
2010-04-27 06:47:23 51°12.984 2°50.742 238.8 15.2 238 9.1
2010-04-27 06:47:28 51°12.972 2°50.713 238.4 15.3 238 9.1
2010-04-27 06:47:33 51°12.961 2°50.685 238.3 15.2 237 9.1
2010-04-27 06:47:38 51°12.949 2°50.657 238 15.2 237 9.1
2010-04-27 06:47:43 51°12.938 2°50.629 237.8 15.2 237 9.1
2010-04-27 06:47:48 51°12.927 2°50.6 238.3 15.3 238 9.1
2010-04-27 06:47:53 51°12.915 2°50.572 238.9 15.2 239 9.1
2010-04-27 06:47:58 51°12.904 2°50.543 239.2 15.2 238 9
2010-04-27 06:48:03 51°12.894 2°50.514 239.6 15.2 239 9.1
2010-04-27 06:48:08 51°12.883 2°50.485 239.8 15.2 239 8.9
2010-04-27 06:48:13 51°12.872 2°50.456 239.9 15.2 240 9.1
2010-04-27 06:48:18 51°12.861 2°50.427 240.2 15.2 239 9.1
2010-04-27 06:48:23 51°12.85 2°50.399 240 15.2 239 9.1
2010-04-27 06:48:28 51°12.839 2°50.37 239.6 15.2 239 9.1
2010-04-27 06:48:33 51°12.828 2°50.342 238.9 15.2 238 9
2010-04-27 06:48:38 51°12.817 2°50.313 238.8 15.2 238 9
2010-04-27 06:48:43 51°12.805 2°50.285 238.6 15.2 238 9.1
2010-04-27 06:48:48 51°12.794 2°50.256 238.5 15.2 238 9
2010-04-27 06:48:53 51°12.783 2°50.228 238.3 15.2 238 9.1
2010-04-27 06:48:58 51°12.772 2°50.199 238.4 15.2 238 8.9
2010-04-27 06:49:03 51°12.761 2°50.171 238.5 15.2 238 8.9
2010-04-27 06:49:08 51°12.75 2°50.142 238.8 15.2 239 9
2010-04-27 06:49:13 51°12.739 2°50.113 239.4 15.2 239 9
2010-04-27 06:49:18 51°12.728 2°50.084 239.5 15.3 238 9
2010-04-27 06:49:23 51°12.718 2°50.054 239.6 15.2 240 8.9
2010-04-27 06:49:28 51°12.707 2°50.025 240.2 15.2 239 9
2010-04-27 06:49:33 51°12.696 2°49.997 240.3 15.2 240 9
2010-04-27 06:49:38 51°12.686 2°49.968 240.6 15.2 240 9
2010-04-27 06:49:43 51°12.675 2°49.938 240.7 15.2 240 9
2010-04-27 06:49:48 51°12.665 2°49.91 240.5 15.2 239 9
2010-04-27 06:49:53 51°12.654 2°49.881 240.2 15.2 239 9
2010-04-27 06:49:58 51°12.643 2°49.853 239.6 15.2 239 9
2010-04-27 06:50:03 51°12.632 2°49.824 239.3 15.2 238 8.9
2010-04-27 06:50:08 51°12.62 2°49.795 238.8 15.2 238 8.9
2010-04-27 06:50:13 51°12.609 2°49.767 238.3 15.2 238 8.9
2010-04-27 06:50:18 51°12.598 2°49.738 238.8 15.2 240 8.9
2010-04-27 06:50:23 51°12.588 2°49.709 240.3 15.3 241 9
2010-04-27 06:50:28 51°12.578 2°49.679 241.7 15.3 242 8.9
2010-04-27 06:50:33 51°12.568 2°49.649 243.1 15.3 243 9
2010-04-27 06:50:38 51°12.558 2°49.619 244.2 15.3 244 9
2010-04-27 06:50:43 51°12.549 2°49.589 244.9 15.3 244 9
2010-04-27 06:50:48 51°12.54 2°49.558 245.4 15.3 245 9.1
2010-04-27 06:50:53 51°12.531 2°49.527 247 15.3 247 9.1
2010-04-27 06:50:58 51°12.523 2°49.496 248.4 15.3 247 9.1
2010-04-27 06:51:03 51°12.515 2°49.464 249.2 15.4 248 9.1
2010-04-27 06:51:08 51°12.507 2°49.433 249.8 15.4 248 9.2
2010-04-27 06:51:13 51°12.5 2°49.401 250.6 15.4 249 9.1
2010-04-27 06:51:18 51°12.492 2°49.369 250.9 15.4 249 9.2
2010-04-27 06:51:23 51°12.485 2°49.337 252.2 15.4 252 9.2
2010-04-27 06:51:28 51°12.478 2°49.304 253.3 15.5 251 9.3
2010-04-27 06:51:33 51°12.472 2°49.272 253.9 15.5 252 9.3
2010-04-27 06:51:38 51°12.465 2°49.239 254.6 15.5 253 9.3
2010-04-27 06:51:43 51°12.459 2°49.207 255.3 15.5 253 9.3
2010-04-27 06:51:48 51°12.453 2°49.174 255.6 15.5 253 9.4
2010-04-27 06:51:53 51°12.446 2°49.141 255.6 15.5 253 9.4
2010-04-27 06:51:58 51°12.44 2°49.108 255.8 15.5 253 9.5
2010-04-27 06:52:03 51°12.434 2°49.076 255.3 15.6 252 9.5
2010-04-27 06:52:08 51°12.427 2°49.043 254.8 15.5 252 9.6
2010-04-27 06:52:13 51°12.421 2°49.01 254.1 15.5 252 9.6
2010-04-27 06:52:18 51°12.414 2°48.977 253.6 15.6 251 9.7
2010-04-27 06:52:23 51°12.407 2°48.945 253.4 15.5 252 9.6
2010-04-27 06:52:28 51°12.4 2°48.912 253.4 15.5 251 9.7
2010-04-27 06:52:33 51°12.393 2°48.879 253.4 15.5 252 9.8
2010-04-27 06:52:38 51°12.387 2°48.847 253.8 15.5 252 9.8
2010-04-27 06:52:43 51°12.38 2°48.814 253.9 15.4 252 9.9
2010-04-27 06:52:48 51°12.374 2°48.782 254.2 15.4 252 9.9
2010-04-27 06:52:53 51°12.367 2°48.749 254.3 15.4 253 10
2010-04-27 06:52:58 51°12.361 2°48.717 254.5 15.5 252 10
2010-04-27 06:53:03 51°12.354 2°48.684 254.2 15.5 252 10.1
2010-04-27 06:53:08 51°12.348 2°48.652 253.9 15.4 252 10.2
2010-04-27 06:53:13 51°12.341 2°48.62 253.4 15.5 251 10.2
2010-04-27 06:53:18 51°12.334 2°48.587 253.3 15.4 251 10.2
2010-04-27 06:53:23 51°12.327 2°48.555 253.3 15.4 252 10.3
2010-04-27 06:53:28 51°12.321 2°48.522 253.6 15.4 252 10.3
2010-04-27 06:53:33 51°12.314 2°48.49 253.6 15.4 251 10.4
2010-04-27 06:53:38 51°12.307 2°48.458 253.6 15.4 252 10.4
2010-04-27 06:53:43 51°12.3 2°48.426 253.5 15.4 251 10.5
2010-04-27 06:53:48 51°12.294 2°48.394 253.4 15.4 252 10.5
2010-04-27 06:53:53 51°12.287 2°48.362 253.6 15.4 252 10.6
2010-04-27 06:53:58 51°12.28 2°48.33 253.5 15.4 252 10.6
2010-04-27 06:54:03 51°12.273 2°48.297 253.4 15.4 252 10.6
2010-04-27 06:54:08 51°12.267 2°48.265 253.3 15.4 251 10.7
2010-04-27 06:54:13 51°12.26 2°48.233 253.2 15.4 251 10.7
2010-04-27 06:54:18 51°12.253 2°48.2 252.9 15.4 252 10.8
2010-04-27 06:54:23 51°12.246 2°48.168 253.2 15.4 252 10.9
2010-04-27 06:54:28 51°12.24 2°48.136 253.2 15.4 252 10.8
2010-04-27 06:54:33 51°12.233 2°48.103 253.2 15.4 252 10.9
2010-04-27 06:54:38 51°12.226 2°48.071 253 15.4 251 10.9
2010-04-27 06:54:43 51°12.219 2°48.039 252.9 15.4 252 11
2010-04-27 06:54:48 51°12.213 2°48.007 253.3 15.4 252 11
2010-04-27 06:54:53 51°12.206 2°47.975 253.3 15.4 252 11.1
2010-04-27 06:54:58 51°12.199 2°47.943 253.3 15.4 252 11.2
2010-04-27 06:55:03 51°12.192 2°47.91 253.3 15.4 252 11.2
2010-04-27 06:55:08 51°12.186 2°47.878 253.3 15.4 252 11.1
2010-04-27 06:55:13 51°12.179 2°47.846 253.4 15.4 252 11.2
2010-04-27 06:55:18 51°12.172 2°47.813 253.4 15.4 252 11.2
2010-04-27 06:55:23 51°12.166 2°47.781 253.4 15.4 252 11.3
2010-04-27 06:55:28 51°12.159 2°47.749 253.4 15.4 252 11.3
2010-04-27 06:55:33 51°12.153 2°47.717 253.3 15.4 252 11.3
2010-04-27 06:55:38 51°12.146 2°47.685 253.1 15.4 252 11.3
2010-04-27 06:55:43 51°12.14 2°47.652 254.1 15.4 253 11.3
2010-04-27 06:55:48 51°12.134 2°47.619 254.8 15.4 253 11.4
2010-04-27 06:55:53 51°12.128 2°47.587 255.6 15.4 256 11.4
2010-04-27 06:55:58 51°12.123 2°47.554 256.8 15.4 255 11.4
2010-04-27 06:56:03 51°12.118 2°47.521 257.5 15.4 256 11.5
2010-04-27 06:56:08 51°12.113 2°47.488 258.4 15.4 257 11.5
2010-04-27 06:56:13 51°12.108 2°47.455 259 15.4 257 11.5
2010-04-27 06:56:18 51°12.103 2°47.422 258.9 15.4 255 11.5
2010-04-27 06:56:23 51°12.098 2°47.388 257.7 15.4 255 11.5
2010-04-27 06:56:28 51°12.092 2°47.356 257.1 15.4 255 11.5
2010-04-27 06:56:33 51°12.086 2°47.323 256.6 15.4 254 11.6
2010-04-27 06:56:38 51°12.081 2°47.291 256.2 15.4 254 11.6
2010-04-27 06:56:43 51°12.074 2°47.258 255.7 15.4 253 11.6
2010-04-27 06:56:48 51°12.068 2°47.225 255.4 15.4 254 11.6
2010-04-27 06:56:53 51°12.063 2°47.193 255.3 15.4 253 11.6
2010-04-27 06:56:58 51°12.056 2°47.16 255.2 15.4 254 11.6
2010-04-27 06:57:03 51°12.05 2°47.127 255.2 15.4 254 11.6
2010-04-27 06:57:08 51°12.044 2°47.095 255 15.5 254 11.6
2010-04-27 06:57:13 51°12.038 2°47.062 255 15.4 254 11.7
2010-04-27 06:57:18 51°12.032 2°47.029 255.2 15.4 254 11.7
2010-04-27 06:57:23 51°12.026 2°46.997 255.6 15.5 254 11.7
2010-04-27 06:57:28 51°12.02 2°46.964 255.5 15.5 253 11.7
2010-04-27 06:57:33 51°12.014 2°46.931 255.5 15.5 254 11.7
2010-04-27 06:57:38 51°12.008 2°46.898 255.5 15.5 254 11.7
2010-04-27 06:57:43 51°12.002 2°46.865 255.6 15.5 254 11.7
2010-04-27 06:57:48 51°11.997 2°46.833 255.6 15.5 254 11.7
2010-04-27 06:57:53 51°11.991 2°46.8 255.6 15.5 254 11.7
2010-04-27 06:57:58 51°11.985 2°46.767 255.6 15.5 254 11.8
2010-04-27 06:58:03 51°11.979 2°46.734 255.6 15.5 254 11.8
2010-04-27 06:58:08 51°11.973 2°46.701 255.6 15.5 255 11.8
2010-04-27 06:58:13 51°11.967 2°46.669 255.9 15.5 254 11.8
2010-04-27 06:58:18 51°11.961 2°46.636 256 15.5 255 11.8
2010-04-27 06:58:23 51°11.956 2°46.603 256.1 15.5 255 11.8
2010-04-27 06:58:28 51°11.95 2°46.57 256.3 15.5 255 11.8
2010-04-27 06:58:33 51°11.945 2°46.537 256.4 15.5 255 11.8
2010-04-27 06:58:38 51°11.939 2°46.504 256.6 15.5 255 11.8
2010-04-27 06:58:43 51°11.934 2°46.471 256.8 15.5 255 11.8
2010-04-27 06:58:48 51°11.929 2°46.437 257.3 15.5 256 11.8
2010-04-27 06:58:53 51°11.924 2°46.404 257.9 15.5 257 11.8
2010-04-27 06:58:58 51°11.919 2°46.37 258.4 15.5 257 11.8
2010-04-27 06:59:03 51°11.914 2°46.337 258.6 15.5 257 11.8
2010-04-27 06:59:08 51°11.909 2°46.304 258.7 15.5 257 11.9
2010-04-27 06:59:13 51°11.904 2°46.271 258.5 15.5 257 11.8
2010-04-27 06:59:18 51°11.899 2°46.237 258.3 15.5 257 11.8
2010-04-27 06:59:23 51°11.894 2°46.204 258.4 15.5 257 11.8
2010-04-27 06:59:28 51°11.889 2°46.171 258.5 15.5 256 11.9
2010-04-27 06:59:33 51°11.884 2°46.137 258.2 15.5 257 11.8
2010-04-27 06:59:38 51°11.879 2°46.104 258.3 15.5 257 11.9
2010-04-27 06:59:43 51°11.874 2°46.071 258.4 15.4 257 11.9
2010-04-27 06:59:48 51°11.869 2°46.037 258.2 15.5 257 11.9
2010-04-27 06:59:53 51°11.864 2°46.004 257.9 15.5 257 11.8
2010-04-27 06:59:58 51°11.859 2°45.971 258.1 15.5 257 11.9
2010-04-27 07:00:03 51°11.854 2°45.938 258.4 15.4 256 11.9
2010-04-27 07:00:08 51°11.85 2°45.905 258.3 15.4 257 11.8
2010-04-27 07:00:13 51°11.845 2°45.871 258.7 15.5 257 11.9
2010-04-27 07:00:18 51°11.84 2°45.838 258.7 15.5 257 11.9
2010-04-27 07:00:23 51°11.835 2°45.805 258.7 15.5 257 12
2010-04-27 07:00:28 51°11.831 2°45.771 259 15.4 258 11.9
2010-04-27 07:00:33 51°11.826 2°45.738 259.3 15.4 257 11.9
2010-04-27 07:00:38 51°11.821 2°45.705 259.3 15.5 258 12
2010-04-27 07:00:43 51°11.817 2°45.671 259.3 15.5 257 11.9
2010-04-27 07:00:48 51°11.812 2°45.639 259.3 15.4 258 11.9
2010-04-27 07:00:53 51°11.808 2°45.605 259.2 15.4 257 11.9
2010-04-27 07:00:58 51°11.803 2°45.572 259.2 15.4 258 11.9
2010-04-27 07:01:03 51°11.799 2°45.539 259.2 15.4 258 12
2010-04-27 07:01:08 51°11.794 2°45.506 259.1 15.4 257 11.9
2010-04-27 07:01:13 51°11.789 2°45.473 258.9 15.4 257 11.9
2010-04-27 07:01:18 51°11.784 2°45.44 258.9 15.4 258 11.9
2010-04-27 07:01:23 51°11.78 2°45.407 259.2 15.3 258 11.9
2010-04-27 07:01:28 51°11.775 2°45.375 259.2 14.8 257 11.9
2010-04-27 07:01:33 51°11.771 2°45.344 259.2 14.2 258 11.9
2010-04-27 07:01:38 51°11.767 2°45.314 259.2 13.7 257 11.9
2010-04-27 07:01:43 51°11.763 2°45.286 258.8 13.2 257 12
2010-04-27 07:01:48 51°11.759 2°45.259 258.5 12.5 257 12
2010-04-27 07:01:53 51°11.755 2°45.234 258.5 11.7 257 12
2010-04-27 07:01:58 51°11.752 2°45.209 258.4 11.2 256 12
2010-04-27 07:02:03 51°11.748 2°45.186 258.2 10.8 256 12.1
2010-04-27 07:02:08 51°11.745 2°45.165 257.7 10.2 255 12.1
2010-04-27 07:02:13 51°11.741 2°45.144 257.4 9.7 255 12.1
2010-04-27 07:02:18 51°11.738 2°45.124 256.6 9.3 254 12.1
2010-04-27 07:02:23 51°11.734 2°45.105 255.9 8.9 254 12
2010-04-27 07:02:28 51°11.731 2°45.087 255.7 8.5 255 12.2
2010-04-27 07:02:33 51°11.728 2°45.069 255.9 8.2 254 12.1
2010-04-27 07:02:38 51°11.725 2°45.052 256.3 7.8 255 12.1
2010-04-27 07:02:43 51°11.723 2°45.036 257 7.6 256 12.1
2010-04-27 07:02:48 51°11.72 2°45.02 257.8 7.4 257 12.1
2010-04-27 07:02:53 51°11.718 2°45.005 259.2 7 258 12.1
2010-04-27 07:02:58 51°11.716 2°44.99 260.6 6.9 259 12.1
2010-04-27 07:03:03 51°11.715 2°44.976 262.4 6.7 260 12
2010-04-27 07:03:08 51°11.714 2°44.961 264.5 6.5 262 12
2010-04-27 07:03:13 51°11.712 2°44.948 266.9 6.3 264 12
2010-04-27 07:03:18 51°11.712 2°44.934 269.3 6.1 266 12.1
2010-04-27 07:03:23 51°11.712 2°44.921 271.5 5.9 267 12
2010-04-27 07:03:28 51°11.711 2°44.908 273.5 5.8 268 12
2010-04-27 07:03:33 51°11.711 2°44.895 275.3 5.7 270 12
2010-04-27 07:03:38 51°11.711 2°44.883 277 5.5 271 12
2010-04-27 07:03:43 51°11.711 2°44.871 278.3 5.4 272 12
2010-04-27 07:03:48 51°11.712 2°44.859 279.7 5.3 272 11.9
2010-04-27 07:03:53 51°11.712 2°44.848 280.7 5.2 273 11.9
2010-04-27 07:03:58 51°11.713 2°44.837 281.5 5.1 274 11.9
2010-04-27 07:04:03 51°11.713 2°44.826 282.2 5 274 12
2010-04-27 07:04:08 51°11.714 2°44.815 282.7 4.9 274 11.9
2010-04-27 07:04:13 51°11.714 2°44.805 283.1 4.8 274 11.9
2010-04-27 07:04:18 51°11.715 2°44.794 283.5 4.7 275 11.9
2010-04-27 07:04:23 51°11.715 2°44.784 283.7 4.7 274 11.9
2010-04-27 07:04:28 51°11.716 2°44.774 283.8 4.6 275 11.9
2010-04-27 07:04:33 51°11.716 2°44.764 283.8 4.5 274 11.8
2010-04-27 07:04:38 51°11.717 2°44.754 283.4 4.4 274 11.8
2010-04-27 07:04:43 51°11.717 2°44.744 283 4.4 274 11.8
2010-04-27 07:04:48 51°11.717 2°44.735 282.4 4.3 273 11.8
2010-04-27 07:04:53 51°11.718 2°44.725 282 4.3 273 11.7
2010-04-27 07:04:58 51°11.718 2°44.716 281.3 4.2 272 11.7
2010-04-27 07:05:03 51°11.718 2°44.706 280.7 4.2 272 11.7
2010-04-27 07:05:08 51°11.718 2°44.697 280 4.1 271 11.7
2010-04-27 07:05:13 51°11.718 2°44.688 279.4 4.1 271 11.7
2010-04-27 07:05:18 51°11.718 2°44.679 278.6 4.1 270 11.7
2010-04-27 07:05:23 51°11.718 2°44.67 277.8 4 269 11.7
2010-04-27 07:05:28 51°11.718 2°44.661 277.1 4 268 11.7
2010-04-27 07:05:33 51°11.718 2°44.653 276.5 4 268 11.7
2010-04-27 07:05:38 51°11.718 2°44.644 275.9 3.9 268 11.6
2010-04-27 07:05:43 51°11.717 2°44.635 275.2 3.9 268 11.6
2010-04-27 07:05:48 51°11.717 2°44.627 274.8 3.9 266 11.6
2010-04-27 07:05:53 51°11.717 2°44.618 274.3 3.9 266 11.5
2010-04-27 07:05:58 51°11.716 2°44.61 273.9 3.8 266 11.5
2010-04-27 07:06:03 51°11.716 2°44.601 273.5 3.8 266 11.6
2010-04-27 07:06:08 51°11.715 2°44.593 273 3.8 265 11.6
2010-04-27 07:06:13 51°11.715 2°44.585 273 3.7 265 11.6
2010-04-27 07:06:18 51°11.714 2°44.576 272.7 3.8 265 11.6
2010-04-27 07:06:23 51°11.714 2°44.568 272.6 3.7 265 11.6
2010-04-27 07:06:28 51°11.713 2°44.56 272.5 3.7 265 11.6
2010-04-27 07:06:33 51°11.713 2°44.551 272.4 3.7 264 11.6
2010-04-27 07:06:38 51°11.712 2°44.543 272.4 3.7 264 11.5
2010-04-27 07:06:43 51°11.712 2°44.535 272.4 3.7 265 11.6
2010-04-27 07:06:48 51°11.711 2°44.527 272.4 3.7 264 11.6
2010-04-27 07:06:53 51°11.711 2°44.519 272.6 3.6 265 11.6
2010-04-27 07:06:58 51°11.71 2°44.511 272.7 3.6 265 11.6
2010-04-27 07:07:03 51°11.71 2°44.503 272.9 3.7 265 11.5
2010-04-27 07:07:08 51°11.709 2°44.495 273 3.6 265 11.5
2010-04-27 07:07:13 51°11.709 2°44.487 273.1 3.6 264 11.5
2010-04-27 07:07:18 51°11.709 2°44.479 273.3 3.6 264 11.6
2010-04-27 07:07:23 51°11.708 2°44.471 273.4 3.6 265 11.4
2010-04-27 07:07:28 51°11.708 2°44.463 273.5 3.6 264 11.5
2010-04-27 07:07:33 51°11.707 2°44.456 273.6 3.6 265 11.5
2010-04-27 07:07:38 51°11.707 2°44.448 273.7 3.5 265 11.5
2010-04-27 07:07:43 51°11.706 2°44.44 273.8 3.5 265 11.5
2010-04-27 07:07:48 51°11.706 2°44.432 274 3.5 265 11.5
2010-04-27 07:07:53 51°11.706 2°44.425 274.1 3.5 266 11.5
2010-04-27 07:07:58 51°11.705 2°44.417 274.3 3.5 265 11.5
2010-04-27 07:08:03 51°11.705 2°44.409 274.4 3.5 266 11.4
2010-04-27 07:08:08 51°11.704 2°44.402 274.5 3.5 265 11.5
2010-04-27 07:08:13 51°11.704 2°44.394 274.6 3.5 266 11.4
2010-04-27 07:08:18 51°11.703 2°44.386 274.8 3.4 265 11.3
2010-04-27 07:08:23 51°11.703 2°44.379 274.8 3.5 266 11.4
2010-04-27 07:08:28 51°11.703 2°44.371 274.9 3.5 265 11.4
2010-04-27 07:08:33 51°11.702 2°44.363 275 3.5 266 11.4
2010-04-27 07:08:38 51°11.702 2°44.355 275.1 3.5 265 11.4
2010-04-27 07:08:43 51°11.702 2°44.348 275.2 3.5 266 11.4
2010-04-27 07:08:48 51°11.701 2°44.34 275.2 3.5 265 11.3
2010-04-27 07:08:53 51°11.701 2°44.333 275.2 3.4 266 11.4
2010-04-27 07:08:58 51°11.701 2°44.326 275.2 3.4 266 11.3
2010-04-27 07:09:03 51°11.7 2°44.318 275.3 3.4 266 11.3
2010-04-27 07:09:08 51°11.7 2°44.31 275.3 3.4 266 11.3
2010-04-27 07:09:13 51°11.7 2°44.303 275.4 3.4 265 11.3
2010-04-27 07:09:18 51°11.699 2°44.295 275.4 3.4 266 11.2
2010-04-27 07:09:23 51°11.699 2°44.288 275.5 3.4 266 11.2
2010-04-27 07:09:28 51°11.699 2°44.28 275.5 3.4 266 11.2
2010-04-27 07:09:33 51°11.698 2°44.273 275.5 3.4 265 11.2
2010-04-27 07:09:38 51°11.698 2°44.265 275.5 3.4 267 11.2
2010-04-27 07:09:43 51°11.697 2°44.258 275.3 3.4 265 11.2
2010-04-27 07:09:48 51°11.697 2°44.25 275.2 3.4 265 11.3
2010-04-27 07:09:53 51°11.697 2°44.243 275.2 3.4 266 11.2
2010-04-27 07:09:58 51°11.697 2°44.236 275.2 3.4 266 11.3
2010-04-27 07:10:03 51°11.696 2°44.229 275.2 3.4 266 11.2
2010-04-27 07:10:08 51°11.696 2°44.221 275.2 3.4 265 11.2
2010-04-27 07:10:13 51°11.696 2°44.214 275.1 3.4 267 11.2
2010-04-27 07:10:18 51°11.695 2°44.207 275.1 3.3 265 11.1
2010-04-27 07:10:23 51°11.695 2°44.199 275 3.3 266 11.1
2010-04-27 07:10:28 51°11.694 2°44.192 274.9 3.3 265 11.1
2010-04-27 07:10:33 51°11.694 2°44.184 274.8 3.3 266 11
2010-04-27 07:10:38 51°11.694 2°44.177 274.8 3.3 264 11
2010-04-27 07:10:43 51°11.693 2°44.17 274.6 3.3 266 11
2010-04-27 07:10:48 51°11.693 2°44.162 274.5 3.3 265 11
2010-04-27 07:10:53 51°11.692 2°44.155 274.4 3.3 265 11
2010-04-27 07:10:58 51°11.692 2°44.148 274.4 3.2 265 11
2010-04-27 07:11:03 51°11.692 2°44.141 274.3 3.2 266 11
2010-04-27 07:11:08 51°11.691 2°44.134 274.1 3.2 265 11
2010-04-27 07:11:13 51°11.691 2°44.127 274 3.2 264 11
2010-04-27 07:11:18 51°11.691 2°44.12 273.8 3.2 265 11
2010-04-27 07:11:23 51°11.69 2°44.113 273.7 3.2 265 11
2010-04-27 07:11:28 51°11.69 2°44.106 273.5 3.2 263 10.9
2010-04-27 07:11:33 51°11.689 2°44.099 273.2 3.1 264 10.9
2010-04-27 07:11:38 51°11.689 2°44.092 272.9 3.1 265 10.9
2010-04-27 07:11:43 51°11.688 2°44.085 272.7 3.1 264 10.9
2010-04-27 07:11:48 51°11.688 2°44.079 272.4 3.1 264 10.8
2010-04-27 07:11:53 51°11.687 2°44.072 272.3 3.1 261 10.9
2010-04-27 07:11:58 51°11.687 2°44.065 272.2 3 262 10.8
2010-04-27 07:12:03 51°11.686 2°44.058 272 3.1 262 10.8
2010-04-27 07:12:08 51°11.686 2°44.052 271.9 3.1 264 10.8
2010-04-27 07:12:13 51°11.685 2°44.045 271.8 3 262 10.8
2010-04-27 07:12:18 51°11.684 2°44.039 271.8 3 263 10.8
2010-04-27 07:12:23 51°11.684 2°44.032 271.8 3 263 10.8
2010-04-27 07:12:28 51°11.683 2°44.025 271.8 3 262 10.8
2010-04-27 07:12:33 51°11.683 2°44.019 271.8 3 264 10.8
2010-04-27 07:12:38 51°11.682 2°44.013 271.9 3 262 10.9
2010-04-27 07:12:43 51°11.682 2°44.006 272 2.9 264 10.8
2010-04-27 07:12:48 51°11.681 2°44 272.2 3 261 10.8
2010-04-27 07:12:53 51°11.681 2°43.993 272.3 3 264 10.8
2010-04-27 07:12:58 51°11.68 2°43.986 272.3 2.9 262 10.8
2010-04-27 07:13:03 51°11.68 2°43.98 272.4 2.9 264 10.9
2010-04-27 07:13:08 51°11.679 2°43.974 272.6 2.9 264 10.8
2010-04-27 07:13:13 51°11.679 2°43.968 272.7 2.9 262 10.8
2010-04-27 07:13:18 51°11.679 2°43.961 273 2.9 263 10.8
2010-04-27 07:13:23 51°11.678 2°43.955 273.1 2.9 261 10.9
2010-04-27 07:13:28 51°11.678 2°43.949 273.3 2.9 264 10.7
2010-04-27 07:13:33 51°11.677 2°43.942 273.5 2.9 262 10.8
2010-04-27 07:13:38 51°11.677 2°43.936 273.6 2.8 265 10.7
2010-04-27 07:13:43 51°11.676 2°43.93 273.8 2.9 263 10.8
2010-04-27 07:13:48 51°11.676 2°43.923 273.9 2.8 264 10.8
2010-04-27 07:13:53 51°11.675 2°43.917 274 2.8 262 10.8
2010-04-27 07:13:58 51°11.675 2°43.911 274.2 2.8 266 10.7
2010-04-27 07:14:03 51°11.674 2°43.905 274.3 2.8 263 10.7
2010-04-27 07:14:08 51°11.674 2°43.899 274.4 2.8 263 10.7
2010-04-27 07:14:13 51°11.673 2°43.893 274.4 2.8 264 10.7
2010-04-27 07:14:18 51°11.673 2°43.886 274.5 2.8 264 10.7
2010-04-27 07:14:23 51°11.673 2°43.88 274.6 2.8 265 10.7
2010-04-27 07:14:28 51°11.672 2°43.874 274.6 2.8 261 10.8
2010-04-27 07:14:33 51°11.672 2°43.868 274.6 2.7 264 10.7
2010-04-27 07:14:38 51°11.671 2°43.862 274.6 2.7 263 10.7
2010-04-27 07:14:43 51°11.671 2°43.856 274.7 2.8 267 10.7
2010-04-27 07:14:48 51°11.67 2°43.85 274.7 2.8 263 10.7
2010-04-27 07:14:53 51°11.67 2°43.844 274.7 2.7 264 10.7
2010-04-27 07:14:58 51°11.67 2°43.838 274.7 2.7 262 10.7